Time;durP1;ratioP1;P1;durP2;ratioP2;P2;SDS_P1;SDS_P2;PMS_P1;PMS_P2;Temp;Humidity;BMP_temperature;BMP_pressure;BME280_temperature;BME280_humidity;BME280_pressure;Samples;Min_cycle;Max_cycle;Signal;HPM_P1;HPM_P2
2022/04/16 00:01:53;;;;;;;13.47;12.07;;;;;;;-150.27;100.00;61272.81;5207667;28;20048;-83
2022/04/16 00:04:24;;;;;;;13.43;11.67;;;;;;;-150.27;100.00;61272.81;5228480;28;20046;-83
2022/04/16 00:06:56;;;;;;;13.27;11.97;;;;;;;-150.27;100.00;61272.81;5229095;28;20432;-83
2022/04/16 00:09:28;;;;;;;15.50;12.33;;;;;;;-150.27;100.00;61272.81;5228918;28;20045;-83
2022/04/16 00:11:59;;;;;;;15.70;12.40;;;;;;;-150.27;100.00;61272.81;5228268;28;20025;-82
2022/04/16 00:14:31;;;;;;;13.87;11.90;;;;;;;-150.27;100.00;61272.81;5228194;28;20041;-84
2022/04/16 00:17:02;;;;;;;17.73;11.70;;;;;;;-150.27;100.00;61272.81;5228585;28;20552;-83
2022/04/16 00:19:34;;;;;;;13.83;12.27;;;;;;;-150.27;100.00;61272.81;5228925;28;20030;-83
2022/04/16 00:22:12;;;;;;;16.37;12.13;;;;;;;-150.27;100.00;61272.81;5229442;28;20035;-84
2022/04/16 00:24:43;;;;;;;15.63;12.10;;;;;;;-150.27;100.00;61272.81;5219640;28;20570;-83
2022/04/16 00:27:14;;;;;;;15.97;12.70;;;;;;;-150.27;100.00;61272.81;5205825;28;20122;-83
2022/04/16 00:29:46;;;;;;;13.93;12.30;;;;;;;-150.27;100.00;61272.81;5228293;28;20032;-84
2022/04/16 00:32:19;;;;;;;16.53;12.77;;;;;;;-150.27;100.00;61272.81;5228558;28;20090;-82
2022/04/16 00:34:51;;;;;;;13.65;11.60;;;;;;;-150.27;100.00;61272.81;5227947;28;20025;-82
2022/04/16 00:37:22;;;;;;;15.80;11.97;;;;;;;-150.27;100.00;61272.81;5228764;28;20030;-72
2022/04/16 00:39:53;;;;;;;18.23;13.57;;;;;;;-150.27;100.00;61272.81;5228674;28;20481;-82
2022/04/16 00:42:25;;;;;;;15.17;12.80;;;;;;;-150.27;100.00;61272.81;5210159;28;20025;-83
2022/04/16 00:44:56;;;;;;;17.27;12.57;;;;;;;-150.27;100.00;61272.81;5211039;28;20539;-83
2022/04/16 00:47:27;;;;;;;15.40;13.60;;;;;;;-150.27;100.00;61272.81;5228351;28;20502;-83
2022/04/16 00:50:00;;;;;;;15.80;13.07;;;;;;;-150.27;100.00;61272.81;5227144;28;20389;-82
2022/04/16 00:52:31;;;;;;;16.10;12.30;;;;;;;-150.27;100.00;61272.81;5228532;28;20033;-82
2022/04/16 00:55:05;;;;;;;17.60;13.17;;;;;;;-150.27;100.00;61272.81;5211099;28;20044;-82
2022/04/16 00:57:41;;;;;;;15.57;12.60;;;;;;;-150.27;100.00;61272.81;5228892;28;20531;-82
2022/04/16 01:00:13;;;;;;;16.97;13.13;;;;;;;-150.27;100.00;61272.81;5224299;28;20041;-81
2022/04/16 01:02:46;;;;;;;17.23;12.83;;;;;;;-150.27;100.00;61272.81;5232135;28;20060;-82
2022/04/16 01:05:19;;;;;;;17.40;13.00;;;;;;;-150.27;100.00;61272.81;5232162;28;20712;-83
2022/04/16 01:07:58;;;;;;;16.93;14.27;;;;;;;-150.27;100.00;61272.81;5232112;28;20034;-83
2022/04/16 01:10:32;;;;;;;16.57;14.50;;;;;;;-150.27;100.00;61272.81;5239831;22;20056;-83
2022/04/16 01:13:05;;;;;;;15.33;12.60;;;;;;;-150.27;100.00;61272.81;5241825;28;20033;-83
2022/04/16 01:15:39;;;;;;;16.20;14.27;;;;;;;-150.27;100.00;61272.81;5202224;28;20411;-82
2022/04/16 01:18:12;;;;;;;19.13;13.43;;;;;;;-150.27;100.00;61272.81;5213594;28;20320;-83
2022/04/16 01:20:44;;;;;;;16.07;14.33;;;;;;;-150.27;100.00;61272.81;5230249;28;20049;-83
2022/04/16 01:23:15;;;;;;;18.77;14.03;;;;;;;-150.27;100.00;61272.81;5232887;28;20033;-83
2022/04/16 01:25:47;;;;;;;17.00;14.60;;;;;;;-150.27;100.00;61272.81;5231645;28;20044;-84
2022/04/16 01:28:18;;;;;;;16.47;14.70;;;;;;;-150.27;100.00;61272.81;5219361;28;20040;-84
2022/04/16 01:30:49;;;;;;;17.10;15.30;;;;;;;-150.27;100.00;61272.81;5230707;28;20030;-83
2022/04/16 01:33:22;;;;;;;17.07;15.23;;;;;;;-150.27;100.00;61272.81;5230549;28;20098;-84
2022/04/16 01:35:56;;;;;;;15.77;14.07;;;;;;;-150.27;100.00;61272.81;5232618;28;20468;-84
2022/04/16 01:38:27;;;;;;;17.75;15.07;;;;;;;-150.27;100.00;61272.81;5231562;28;20026;-83
2022/04/16 01:40:59;;;;;;;20.17;16.17;;;;;;;-150.27;100.00;61272.81;5231817;28;20026;-84
2022/04/16 01:43:30;;;;;;;20.50;16.30;;;;;;;-150.27;100.00;61272.81;5230691;28;20071;-83
2022/04/16 01:46:04;;;;;;;16.47;14.33;;;;;;;-150.27;100.00;61272.81;5217738;28;20510;-83
2022/04/16 01:48:35;;;;;;;19.07;16.27;;;;;;;-150.27;100.00;61272.81;5231952;28;20035;-84
2022/04/16 01:51:07;;;;;;;19.63;16.77;;;;;;;-150.27;100.00;61272.81;5224621;28;20112;-84
2022/04/16 01:53:38;;;;;;;22.23;16.87;;;;;;;-150.27;100.00;61272.81;5230578;28;20029;-83
2022/04/16 01:56:10;;;;;;;17.53;15.63;;;;;;;-150.27;100.00;61272.81;5230309;28;20569;-83
2022/04/16 01:58:43;;;;;;;19.43;15.50;;;;;;;-150.27;100.00;61272.81;5229609;28;20079;-83
2022/04/16 02:01:15;;;;;;;18.93;15.83;;;;;;;-150.27;100.00;61272.81;5231381;28;20104;-84
2022/04/16 02:03:46;;;;;;;18.27;15.40;;;;;;;-150.27;100.00;61272.81;5231576;28;20479;-83
2022/04/16 02:06:18;;;;;;;19.57;17.17;;;;;;;-150.27;100.00;61272.81;5214004;28;20117;-83
2022/04/16 02:08:51;;;;;;;24.27;15.97;;;;;;;-150.27;100.00;61272.81;5231167;28;20476;-83
2022/04/16 02:11:22;;;;;;;20.20;16.63;;;;;;;-150.27;100.00;61272.81;5230756;28;20049;-83
2022/04/16 02:13:54;;;;;;;19.83;16.80;;;;;;;-150.27;100.00;61272.81;5212516;28;20531;-84
2022/04/16 02:16:25;;;;;;;23.43;17.43;;;;;;;-150.27;100.00;61272.81;5230959;28;20025;-82
2022/04/16 02:18:56;;;;;;;20.40;17.40;;;;;;;-150.27;100.00;61272.81;5223773;28;20032;-82
2022/04/16 02:21:30;;;;;;;20.23;16.97;;;;;;;-150.27;100.00;61272.81;5227428;28;20026;-83
2022/04/16 02:24:02;;;;;;;22.40;16.55;;;;;;;-150.27;100.00;61272.81;5231544;28;20025;-82
2022/04/16 02:26:33;;;;;;;21.63;16.63;;;;;;;-150.27;100.00;61272.81;5230495;28;20033;-84
2022/04/16 02:29:05;;;;;;;19.63;17.10;;;;;;;-150.27;100.00;61272.81;5230143;28;20037;-83
2022/04/16 02:31:37;;;;;;;19.77;16.33;;;;;;;-150.27;100.00;61272.81;5216716;28;20025;-83
2022/04/16 02:34:10;;;;;;;19.97;17.03;;;;;;;-150.27;100.00;61272.81;5251807;28;20033;-83
2022/04/16 02:36:43;;;;;;;19.93;17.67;;;;;;;-150.27;100.00;61272.81;5251179;28;20107;-83
2022/04/16 02:39:15;;;;;;;18.40;16.50;;;;;;;-150.27;100.00;61272.81;5251748;28;20048;-84
2022/04/16 02:41:47;;;;;;;21.03;17.47;;;;;;;-150.27;100.00;61272.81;5248124;28;20037;-81
2022/04/16 02:47:13;;;;;;;18.87;16.83;;;;;;;-150.27;100.00;61272.81;5248756;28;20044;-83
2022/04/16 02:49:44;;;;;;;23.50;17.03;;;;;;;-150.27;100.00;61272.81;5224998;28;20861;-83
2022/04/16 02:52:15;;;;;;;23.77;17.77;;;;;;;-150.27;100.00;61272.81;5248627;28;20061;-84
2022/04/16 02:54:47;;;;;;;20.17;17.07;;;;;;;-150.27;100.00;61272.81;5251060;28;20025;-83
2022/04/16 02:57:18;;;;;;;22.13;17.10;;;;;;;-150.27;100.00;61272.81;5247970;28;20029;-83
2022/04/16 02:59:52;;;;;;;21.60;17.40;;;;;;;-150.27;100.00;61272.81;5239957;28;20021;-83
2022/04/16 03:02:23;;;;;;;21.30;17.70;;;;;;;-150.27;100.00;61272.81;5250829;28;20024;-83
2022/04/16 03:04:55;;;;;;;22.10;18.93;;;;;;;-150.27;100.00;61272.81;5251079;28;20459;-81
2022/04/16 03:07:26;;;;;;;23.30;18.57;;;;;;;-150.27;100.00;61272.81;5232349;28;20418;-84
2022/04/16 03:09:57;;;;;;;21.70;18.80;;;;;;;-150.27;100.00;61272.81;5239870;28;20182;-82
2022/04/16 03:12:49;;;;;;;19.07;17.07;;;;;;;-150.27;100.00;61272.81;5236945;28;20946;-83
2022/04/16 03:18:11;;;;;;;20.10;17.43;;;;;;;-150.27;100.00;61272.81;5239573;28;20041;-82
2022/04/16 03:20:44;;;;;;;23.57;17.87;;;;;;;-150.27;100.00;61272.81;5216980;28;20408;-82
2022/04/16 03:23:15;;;;;;;21.73;18.23;;;;;;;-150.27;100.00;61272.81;5212741;28;20079;-83
2022/04/16 03:25:48;;;;;;;22.93;19.20;;;;;;;-150.27;100.00;61272.81;5229079;28;20056;-83
2022/04/16 03:28:19;;;;;;;23.10;18.23;;;;;;;-150.27;100.00;61272.81;5229016;28;20036;-82
2022/04/16 03:30:51;;;;;;;24.80;19.20;;;;;;;-150.27;100.00;61272.81;5229129;28;20471;-82
2022/04/16 03:33:22;;;;;;;22.53;18.63;;;;;;;-150.27;100.00;61272.81;5246281;28;20434;-74
2022/04/16 03:35:54;;;;;;;24.23;19.53;;;;;;;-150.27;100.00;61272.81;5244431;28;20103;-82
2022/04/16 03:38:25;;;;;;;23.67;19.37;;;;;;;-150.27;100.00;61272.81;5230889;28;20025;-83
2022/04/16 03:40:57;;;;;;;22.07;18.27;;;;;;;-150.27;100.00;61272.81;5239499;28;20502;-82
2022/04/16 03:43:29;;;;;;;23.73;19.67;;;;;;;-150.27;100.00;61272.81;5248944;28;20024;-83
2022/04/16 03:46:00;;;;;;;26.23;21.07;;;;;;;-150.27;100.00;61272.81;5228011;28;20021;-83
2022/04/16 03:48:31;;;;;;;24.27;19.40;;;;;;;-150.27;100.00;61272.81;5241194;28;20380;-82
2022/04/16 03:51:03;;;;;;;21.90;18.87;;;;;;;-150.27;100.00;61272.81;5239880;28;20718;-83
2022/04/16 03:53:34;;;;;;;24.83;20.33;;;;;;;-150.27;100.00;61272.81;5246434;28;20024;-84
2022/04/16 04:01:45;;;;;;;22.27;19.27;;;;;;;-150.27;100.00;61272.81;5246173;28;20488;-84
2022/04/16 04:04:16;;;;;;;23.47;18.87;;;;;;;-150.27;100.00;61272.81;5240316;28;20025;-83
2022/04/16 04:06:48;;;;;;;27.30;20.67;;;;;;;-150.27;100.00;61272.81;5232397;28;20036;-83
2022/04/16 04:09:19;;;;;;;22.03;19.43;;;;;;;-150.27;100.00;61272.81;5231734;28;20041;-84
2022/04/16 04:11:50;;;;;;;25.03;20.63;;;;;;;-150.27;100.00;61272.81;5221250;28;20075;-84
2022/04/16 04:14:22;;;;;;;21.00;18.83;;;;;;;-150.27;100.00;61272.81;5238215;28;20037;-82
2022/04/16 04:16:53;;;;;;;22.97;19.47;;;;;;;-150.27;100.00;61272.81;5232458;28;20044;-83
2022/04/16 04:19:24;;;;;;;23.90;21.50;;;;;;;-150.27;100.00;61272.81;5209393;28;20037;-82
2022/04/16 04:21:55;;;;;;;25.43;20.47;;;;;;;-150.27;100.00;61272.81;5226794;28;20025;-82
2022/04/16 04:24:27;;;;;;;26.83;20.33;;;;;;;-150.27;100.00;61272.81;5229838;28;20026;-83
2022/04/16 04:26:59;;;;;;;26.17;20.40;;;;;;;-150.27;100.00;61272.81;5229656;28;20515;-80
2022/04/16 04:29:30;;;;;;;24.73;21.10;;;;;;;-150.27;100.00;61272.81;5228587;28;20029;-80
2022/04/16 04:32:03;;;;;;;23.87;20.27;;;;;;;-150.27;100.00;61272.81;5231648;28;20047;-77
2022/04/16 04:34:34;;;;;;;24.20;21.27;;;;;;;-150.27;100.00;61272.81;5232927;28;20037;-81
2022/04/16 04:37:06;;;;;;;24.30;21.17;;;;;;;-150.27;100.00;61272.81;5238034;28;20032;-80
2022/04/16 04:39:37;;;;;;;25.47;21.30;;;;;;;-150.27;100.00;61272.81;5241540;28;20029;-81
2022/04/16 04:42:08;;;;;;;24.97;21.77;;;;;;;-150.27;100.00;61272.81;5252629;28;20102;-84
2022/04/16 04:44:39;;;;;;;24.57;21.67;;;;;;;-150.27;100.00;61272.81;5243215;28;20039;-81
2022/04/16 04:47:11;;;;;;;28.57;20.43;;;;;;;-150.27;100.00;61272.81;5236021;28;20082;-81
2022/04/16 04:49:42;;;;;;;23.27;20.87;;;;;;;-150.27;100.00;61272.81;5235623;28;20029;-81
2022/04/16 04:52:21;;;;;;;25.83;22.03;;;;;;;-150.27;100.00;61272.81;5234985;28;20431;-81
2022/04/16 04:54:53;;;;;;;25.23;21.63;;;;;;;-150.27;100.00;61272.81;5240336;28;20112;-80
2022/04/16 04:57:25;;;;;;;25.67;22.30;;;;;;;-150.27;100.00;61272.81;5246247;28;20086;-81
2022/04/16 04:59:56;;;;;;;25.83;22.30;;;;;;;-150.27;100.00;61272.81;5251198;28;20695;-81
2022/04/16 05:02:38;;;;;;;25.33;21.97;;;;;;;-150.27;100.00;61272.81;5238319;28;20078;-81
2022/04/16 05:05:09;;;;;;;28.67;22.80;;;;;;;-150.27;100.00;61272.81;5233022;28;20022;-80
2022/04/16 05:07:41;;;;;;;27.77;22.80;;;;;;;-150.27;100.00;61272.81;5233231;28;20584;-80
2022/04/16 05:10:12;;;;;;;26.67;22.50;;;;;;;-150.27;100.00;61272.81;5231533;28;20041;-80
2022/04/16 05:12:43;;;;;;;25.87;23.07;;;;;;;-150.27;100.00;61272.81;5232072;28;20095;-79
2022/04/16 05:15:15;;;;;;;27.30;22.07;;;;;;;-150.27;100.00;61272.81;5233950;28;20061;-79
2022/04/16 05:17:46;;;;;;;29.90;24.60;;;;;;;-150.27;100.00;61272.81;5233244;28;20442;-78
2022/04/16 05:20:20;;;;;;;27.63;23.07;;;;;;;-150.27;100.00;61272.81;5213017;28;20586;-76
2022/04/16 05:22:52;;;;;;;27.90;24.38;;;;;;;-150.27;100.00;61272.81;5239174;28;20031;-84
2022/04/16 05:25:23;;;;;;;31.57;24.07;;;;;;;-150.27;100.00;61272.81;5247266;28;20017;-84
2022/04/16 05:27:54;;;;;;;26.73;23.23;;;;;;;-150.27;100.00;61272.81;5250205;28;20082;-83
2022/04/16 05:30:33;;;;;;;28.37;24.10;;;;;;;-150.27;100.00;61272.81;5249626;28;20091;-83
2022/04/16 05:33:16;;;;;;;31.20;24.27;;;;;;;-150.27;100.00;61272.81;5243726;28;20055;-83
2022/04/16 05:35:47;;;;;;;25.63;22.57;;;;;;;-150.27;100.00;61272.81;5240498;28;20067;-83
2022/04/16 05:38:18;;;;;;;33.40;26.23;;;;;;;-150.27;100.00;61272.81;5236855;28;20487;-84
2022/04/16 05:40:50;;;;;;;27.77;24.77;;;;;;;-150.27;100.00;61272.81;5252367;28;20047;-84
2022/04/16 05:43:21;;;;;;;28.40;25.30;;;;;;;-150.27;100.00;61272.81;5237770;28;20029;-84
2022/04/16 05:45:52;;;;;;;27.07;23.57;;;;;;;-150.27;100.00;61272.81;5251227;28;20048;-82
2022/04/16 05:48:24;;;;;;;29.43;24.33;;;;;;;-150.27;100.00;61272.81;5244098;28;20064;-82
2022/04/16 05:50:57;;;;;;;30.00;25.13;;;;;;;-150.27;100.00;61272.81;5246478;28;20025;-84
2022/04/16 05:53:30;;;;;;;31.10;26.60;;;;;;;-150.27;100.00;61272.81;5252291;28;20039;-84
2022/04/16 05:56:01;;;;;;;29.13;25.53;;;;;;;-150.27;100.00;61272.81;5241651;28;20029;-82
2022/04/16 05:58:32;;;;;;;32.77;26.27;;;;;;;-150.27;100.00;61272.81;5245749;28;20082;-84
2022/04/16 06:01:06;;;;;;;35.77;26.97;;;;;;;-150.27;100.00;61272.81;5245833;28;20029;-81
2022/04/16 06:03:41;;;;;;;32.50;26.58;;;;;;;-150.27;100.00;61272.81;5251741;28;20029;-82
2022/04/16 06:06:12;;;;;;;34.20;27.17;;;;;;;-150.27;100.00;61272.81;5240289;28;20269;-84
2022/04/16 06:08:43;;;;;;;28.90;25.60;;;;;;;-150.27;100.00;61272.81;5246947;28;20037;-84
2022/04/16 06:11:19;;;;;;;32.30;28.30;;;;;;;-150.27;100.00;61272.81;5252317;28;20037;-83
2022/04/16 06:13:51;;;;;;;33.33;27.93;;;;;;;-150.27;100.00;61272.81;5231127;28;20028;-83
2022/04/16 06:16:22;;;;;;;33.30;27.87;;;;;;;-150.27;100.00;61272.81;5240404;28;20472;-80
2022/04/16 06:18:53;;;;;;;33.93;30.13;;;;;;;-150.27;100.00;61272.81;5237703;28;20025;-83
2022/04/16 06:21:24;;;;;;;31.77;27.67;;;;;;;-150.27;100.00;61272.81;5228982;28;20514;-82
2022/04/16 06:23:57;;;;;;;31.93;27.43;;;;;;;-150.27;100.00;61272.81;5231379;28;20021;-83
2022/04/16 06:26:29;;;;;;;31.37;28.13;;;;;;;-150.27;100.00;61272.81;5229745;28;20917;-83
2022/04/16 06:29:00;;;;;;;32.80;28.23;;;;;;;-150.27;100.00;61272.81;5231165;28;20084;-82
2022/04/16 06:31:31;;;;;;;36.17;29.07;;;;;;;-150.27;100.00;61272.81;5232407;28;20037;-83
2022/04/16 06:34:02;;;;;;;34.30;29.27;;;;;;;-150.27;100.00;61272.81;5250397;28;20120;-83
2022/04/16 06:36:34;;;;;;;38.50;29.77;;;;;;;-150.27;100.00;61272.81;5233997;28;20116;-85
2022/04/16 06:39:05;;;;;;;37.17;30.30;;;;;;;-150.27;100.00;61272.81;5249157;28;20037;-83
2022/04/16 06:41:36;;;;;;;38.00;30.97;;;;;;;-150.27;100.00;61272.81;5247947;28;20036;-84
2022/04/16 06:44:07;;;;;;;35.90;30.13;;;;;;;-150.27;100.00;61272.81;5245118;28;20511;-84
2022/04/16 06:46:39;;;;;;;33.90;30.07;;;;;;;-150.27;100.00;61272.81;5251428;28;20033;-84
2022/04/16 06:49:10;;;;;;;38.10;32.17;;;;;;;-150.27;100.00;61272.81;5235637;28;20040;-82
2022/04/16 06:51:42;;;;;;;41.23;32.50;;;;;;;-150.27;100.00;61272.81;5236437;28;20095;-84
2022/04/16 06:54:13;;;;;;;40.97;30.83;;;;;;;-150.27;100.00;61272.81;5243717;28;20033;-84
2022/04/16 06:56:44;;;;;;;37.33;31.37;;;;;;;-150.27;100.00;61272.81;5213380;28;20037;-83
2022/04/16 06:59:15;;;;;;;39.30;32.50;;;;;;;-150.27;100.00;61272.81;5235233;28;20021;-84
2022/04/16 07:01:47;;;;;;;37.73;31.17;;;;;;;-150.27;100.00;61272.81;5236443;28;20120;-83
2022/04/16 07:04:18;;;;;;;40.33;30.90;;;;;;;-150.27;100.00;61272.81;5230000;28;20471;-83
2022/04/16 07:06:49;;;;;;;37.17;30.87;;;;;;;-150.27;100.00;61272.81;5229597;28;20037;-84
2022/04/16 07:09:21;;;;;;;35.33;30.23;;;;;;;-150.27;100.00;61272.81;5241550;28;20488;-83
2022/04/16 07:11:52;;;;;;;33.73;29.37;;;;;;;-150.27;100.00;61272.81;5239075;28;20511;-72
2022/04/16 07:14:24;;;;;;;34.77;30.00;;;;;;;-150.27;100.00;61272.81;5250514;28;20025;-82
2022/04/16 07:16:55;;;;;;;34.03;29.60;;;;;;;-150.27;100.00;61272.81;5244718;28;20025;-84
2022/04/16 07:19:28;;;;;;;33.03;27.90;;;;;;;-150.27;100.00;61272.81;5224050;28;20125;-82
2022/04/16 07:22:00;;;;;;;33.73;28.73;;;;;;;-150.27;100.00;61272.81;5228188;28;20551;-82
2022/04/16 07:24:31;;;;;;;35.23;27.93;;;;;;;-150.27;100.00;61272.81;5211908;28;20036;-80
2022/04/16 07:27:03;;;;;;;33.20;28.43;;;;;;;-150.27;100.00;61272.81;5228918;28;20022;-73
2022/04/16 07:29:34;;;;;;;33.63;27.17;;;;;;;-150.27;100.00;61272.81;5234531;28;20045;-80
2022/04/16 07:32:06;;;;;;;29.97;26.03;;;;;;;-150.27;100.00;61272.81;5229827;28;20510;-79
2022/04/16 07:34:37;;;;;;;31.33;25.03;;;;;;;-150.27;100.00;61272.81;5230033;28;20155;-85
2022/04/16 07:37:09;;;;;;;28.97;25.17;;;;;;;-150.27;100.00;61272.81;5230336;28;20036;-85
2022/04/16 07:39:40;;;;;;;32.80;25.47;;;;;;;-150.27;100.00;61272.81;5230337;28;20034;-80
2022/04/16 07:42:11;;;;;;;28.67;25.03;;;;;;;-150.27;100.00;61272.81;5226354;28;20747;-78
2022/04/16 07:44:43;;;;;;;29.47;24.70;;;;;;;-150.27;100.00;61272.81;5229522;28;20111;-82
2022/04/16 07:47:14;;;;;;;25.60;22.80;;;;;;;-150.27;100.00;61272.81;5230206;28;20040;-79
2022/04/16 07:49:46;;;;;;;24.37;21.40;;;;;;;-150.27;100.00;61272.81;5228304;28;20093;-79
2022/04/16 07:52:17;;;;;;;28.97;20.93;;;;;;;-150.27;100.00;61272.81;5231396;28;20037;-79
2022/04/16 07:54:48;;;;;;;26.47;20.17;;;;;;;-150.27;100.00;61272.81;5212881;28;20082;-80
2022/04/16 07:57:20;;;;;;;22.77;20.30;;;;;;;-150.27;100.00;61272.81;5228791;28;20021;-80
2022/04/16 07:59:53;;;;;;;20.47;18.37;;;;;;;-150.27;100.00;61272.81;5237272;28;20025;-77
2022/04/16 08:02:25;;;;;;;22.70;18.85;;;;;;;-150.27;100.00;61272.81;5249069;28;20081;-76
2022/04/16 08:04:56;;;;;;;19.70;17.70;;;;;;;-150.27;100.00;61272.81;5238510;28;20013;-77
2022/04/16 08:07:27;;;;;;;21.90;19.60;;;;;;;-150.27;100.00;61272.81;5245325;28;20029;-78
2022/04/16 08:09:59;;;;;;;19.70;17.43;;;;;;;-150.27;100.00;61272.81;5249648;28;20029;-78
2022/04/16 08:12:30;;;;;;;22.97;17.67;;;;;;;-150.27;100.00;61272.81;5234038;28;20463;-79
2022/04/16 08:15:04;;;;;;;19.93;17.30;;;;;;;-150.27;100.00;61272.81;5244586;28;20025;-79
2022/04/16 08:17:40;;;;;;;17.33;15.60;;;;;;;-150.27;100.00;61272.81;5231099;28;20026;-78
2022/04/16 08:20:11;;;;;;;18.90;16.77;;;;;;;-150.27;100.00;61272.81;5218286;28;20563;-78
2022/04/16 08:22:46;;;;;;;19.57;16.43;;;;;;;-150.27;100.00;61272.81;5228038;28;20028;-77
2022/04/16 08:27:55;;;;;;;17.63;15.65;;;;;;;-150.27;100.00;61272.81;5228586;28;20534;-79
2022/04/16 08:30:26;;;;;;;16.45;14.85;;;;;;;-150.27;100.00;61272.81;5226472;28;20033;-79
2022/04/16 08:32:58;;;;;;;17.52;15.48;;;;;;;-150.27;100.00;61272.81;5229433;28;20076;-79
2022/04/16 08:35:30;;;;;;;17.02;15.32;;;;;;;-150.27;100.00;61272.81;5227820;28;20029;-79
2022/04/16 08:38:01;;;;;;;16.50;14.77;;;;;;;-150.27;100.00;61272.81;5228677;28;20566;-79
2022/04/16 08:40:32;;;;;;;17.08;15.38;;;;;;;-150.27;100.00;61272.81;5228166;28;20663;-79
2022/04/16 08:43:06;;;;;;;15.20;13.75;;;;;;;-150.27;100.00;61272.81;5208448;28;20032;-79
2022/04/16 08:45:38;;;;;;;15.93;14.32;;;;;;;-150.27;100.00;61272.81;5230261;28;20025;-78
2022/04/16 08:48:11;;;;;;;15.95;14.18;;;;;;;-150.27;100.00;61272.81;5231693;28;20017;-79
2022/04/16 08:50:43;;;;;;;15.05;13.45;;;;;;;-150.27;100.00;61272.81;5228688;28;20639;-77
2022/04/16 08:53:15;;;;;;;15.15;13.50;;;;;;;-150.27;100.00;61272.81;5227879;28;20053;-82
2022/04/16 08:55:47;;;;;;;13.73;12.38;;;;;;;-150.27;100.00;61272.81;5229305;28;20059;-81
2022/04/16 08:58:18;;;;;;;13.82;12.32;;;;;;;-150.27;100.00;61272.81;5229428;28;20063;-81
2022/04/16 09:00:50;;;;;;;14.18;12.77;;;;;;;-150.27;100.00;61272.81;5228683;28;20159;-82
2022/04/16 09:03:21;;;;;;;12.73;11.43;;;;;;;-150.27;100.00;61272.81;5229310;28;20104;-81
2022/04/16 09:05:55;;;;;;;12.68;11.48;;;;;;;-150.27;100.00;61272.81;5227298;28;20100;-82
2022/04/16 09:08:28;;;;;;;14.38;12.88;;;;;;;-150.27;100.00;61272.81;5227345;28;20756;-79
2022/04/16 09:11:11;;;;;;;13.80;12.55;;;;;;;-150.27;100.00;61272.81;5228685;28;20045;-78
2022/04/16 09:14:00;;;;;;;12.02;10.82;;;;;;;-150.27;100.00;61272.81;5249004;28;20035;-79
2022/04/16 09:16:32;;;;;;;11.73;10.63;;;;;;;-150.27;100.00;61272.81;5215372;28;20025;-79
2022/04/16 09:19:03;;;;;;;13.88;11.23;;;;;;;-150.27;100.00;61272.81;5230104;28;20501;-78
2022/04/16 09:21:35;;;;;;;12.88;10.13;;;;;;;-150.27;100.00;61272.81;5231527;28;20065;-78
2022/04/16 09:24:06;;;;;;;12.65;11.30;;;;;;;-150.27;100.00;61272.81;5231757;28;20033;-79
2022/04/16 09:26:39;;;;;;;10.80;9.70;;;;;;;-150.27;100.00;61272.81;5231143;28;20026;-79
2022/04/16 09:29:15;;;;;;;9.63;8.60;;;;;;;-150.27;100.00;61272.81;5231121;28;20107;-79
2022/04/16 09:31:49;;;;;;;10.60;9.60;;;;;;;-150.27;100.00;61272.81;5230828;28;20022;-79
2022/04/16 09:34:23;;;;;;;11.95;10.75;;;;;;;-150.27;100.00;61272.81;5232045;28;20034;-79
2022/04/16 09:36:54;;;;;;;10.32;9.30;;;;;;;-150.27;100.00;61272.81;5213515;28;20439;-79
2022/04/16 09:39:27;;;;;;;10.90;9.75;;;;;;;-150.27;100.00;61272.81;5231169;28;20045;-73
2022/04/16 09:41:58;;;;;;;9.23;8.30;;;;;;;-150.27;100.00;61272.81;5211838;28;20112;-74
2022/04/16 09:44:29;;;;;;;11.35;9.13;;;;;;;-150.27;100.00;61272.81;5231593;28;20570;-75
2022/04/16 09:47:03;;;;;;;7.30;6.55;;;;;;;-150.27;100.00;61272.81;5232093;28;20040;-75
2022/04/16 09:49:36;;;;;;;5.93;4.05;;;;;;;-150.27;100.00;61272.81;5231616;28;20907;-75
2022/04/16 09:52:08;;;;;;;6.82;6.13;;;;;;;-150.27;100.00;61272.81;5232129;28;20653;-74
2022/04/16 09:54:43;;;;;;;4.82;4.32;;;;;;;-150.27;100.00;61272.81;5231396;28;20476;-76
2022/04/16 09:57:19;;;;;;;5.82;5.32;;;;;;;-150.27;100.00;61272.81;5213369;28;20035;-76
2022/04/16 09:59:52;;;;;;;6.32;5.72;;;;;;;-150.27;100.00;61272.81;5230205;28;20025;-76
2022/04/16 10:02:25;;;;;;;;;;;;;;;-150.27;100.00;61272.81;5231910;28;20048;-77
2022/04/16 10:04:58;;;;;;;7.15;5.95;;;;;;;-150.27;100.00;61272.81;5231066;28;19952;-77
2022/04/16 10:07:31;;;;;;;8.60;7.80;;;;;;;-150.27;100.00;61272.81;5231594;28;20079;-77
2022/04/16 10:10:06;;;;;;;7.10;6.40;;;;;;;-150.27;100.00;61272.81;5231004;28;20431;-77
2022/04/16 10:15:46;;;;;;;6.80;6.20;;;;;;;-150.27;100.00;61272.81;5230583;28;20037;-76
2022/04/16 10:18:17;;;;;;;6.78;6.10;;;;;;;-150.27;100.00;61272.81;5227681;28;20029;-81
2022/04/16 10:20:52;;;;;;;8.00;7.28;;;;;;;-150.27;100.00;61272.81;5228008;28;20034;-85
2022/04/16 10:23:50;;;;;;;8.00;6.70;;;;;;;-150.27;100.00;61272.81;5233260;28;20041;-79
2022/04/16 10:26:21;;;;;;;8.70;6.95;;;;;;;-150.27;100.00;61272.81;5226219;28;20102;-77
2022/04/16 10:28:55;;;;;;;6.25;5.60;;;;;;;-150.27;100.00;61272.81;5234758;28;20041;-82
2022/04/16 10:31:28;;;;;;;7.05;6.32;;;;;;;-150.27;100.00;61272.81;5250755;28;20033;-82
2022/04/16 10:33:59;;;;;;;7.07;5.70;;;;;;;-150.27;100.00;61272.81;5234730;28;20100;-76
2022/04/16 10:36:38;;;;;;;4.72;4.32;;;;;;;-150.27;100.00;61272.81;5242869;28;20423;-75
2022/04/16 10:39:13;;;;;;;4.93;4.47;;;;;;;-150.27;100.00;61272.81;5237567;28;20075;-81
2022/04/16 10:42:02;;;;;;;6.78;5.88;;;;;;;-150.27;100.00;61272.81;5229133;28;20652;-82
2022/04/16 10:44:46;;;;;;;5.30;4.80;;;;;;;-150.27;100.00;61272.81;5236758;28;20086;-81
2022/04/16 10:47:18;;;;;;;5.80;5.07;;;;;;;-150.27;100.00;61272.81;5251990;28;20360;-78
2022/04/16 10:49:57;;;;;;;7.18;5.03;;;;;;;-150.27;100.00;61272.81;5251022;28;20036;-81
2022/04/16 10:52:28;;;;;;;3.83;3.40;;;;;;;-150.27;100.00;61272.81;5233481;28;20068;-77
2022/04/16 10:55:09;;;;;;;5.75;3.80;;;;;;;-150.27;100.00;61272.81;5230589;28;20053;-75
2022/04/16 10:57:40;;;;;;;3.92;3.50;;;;;;;-150.27;100.00;61272.81;5228732;28;20124;-77
2022/04/16 11:00:13;;;;;;;3.85;3.45;;;;;;;-150.27;100.00;61272.81;5229898;28;20121;-77
2022/04/16 11:02:44;;;;;;;5.50;3.90;;;;;;;-150.27;100.00;61272.81;5234589;28;20029;-78
2022/04/16 11:05:15;;;;;;;5.88;4.07;;;;;;;-150.27;100.00;61272.81;5231634;28;20650;-78
2022/04/16 11:07:47;;;;;;;4.43;4.03;;;;;;;-150.27;100.00;61272.81;5232758;28;20024;-76
2022/04/16 11:10:22;;;;;;;4.50;3.80;;;;;;;-150.27;100.00;61272.81;5230555;28;20037;-76
2022/04/16 11:12:54;;;;;;;6.05;4.57;;;;;;;-150.27;100.00;61272.81;5213591;28;20464;-76
2022/04/16 11:15:27;;;;;;;4.25;3.85;;;;;;;-150.27;100.00;61272.81;5230463;28;20037;-76
2022/04/16 11:18:01;;;;;;;4.40;3.92;;;;;;;-150.27;100.00;61272.81;5230635;28;20034;-76
2022/04/16 11:20:32;;;;;;;4.82;3.90;;;;;;;-150.27;100.00;61272.81;5215009;28;20014;-77
2022/04/16 11:23:10;;;;;;;4.05;3.55;;;;;;;-150.27;100.00;61272.81;5226183;28;20037;-77
2022/04/16 11:34:17;;;;;;;5.75;4.95;;;;;;;-150.27;100.00;61272.81;5237971;28;20041;-77
2022/04/16 11:36:50;;;;;;;4.40;3.90;;;;;;;-150.27;100.00;61272.81;5225852;28;20088;-77
2022/04/16 11:39:24;;;;;;;4.87;4.33;;;;;;;-150.27;100.00;61272.81;5250660;28;20017;-79
2022/04/16 11:41:56;;;;;;;;;;;;;;;-150.27;100.00;61272.81;5250366;28;20283;-87
2022/04/16 11:44:41;;;;;;;5.40;4.90;;;;;;;-150.27;100.00;61272.81;5255733;28;19920;-83
2022/04/16 11:47:20;;;;;;;5.75;4.70;;;;;;;-150.27;100.00;61272.81;5253433;28;20533;-80